sensor_id;sensor_type;location;lat;lon;timestamp;P1;durP1;ratioP1;P2;durP2;ratioP2
51636;SDS011;37713;53.254;6.460;2023-04-08T00:01:25;13.25;;;7.70;;
51636;SDS011;37713;53.254;6.460;2023-04-08T00:03:51;11.80;;;7.10;;
51636;SDS011;37713;53.254;6.460;2023-04-08T00:06:17;14.27;;;8.02;;
51636;SDS011;37713;53.254;6.460;2023-04-08T00:08:43;11.50;;;7.50;;
51636;SDS011;37713;53.254;6.460;2023-04-08T00:11:08;14.30;;;8.25;;
51636;SDS011;37713;53.254;6.460;2023-04-08T00:13:34;13.43;;;7.93;;
51636;SDS011;37713;53.254;6.460;2023-04-08T00:16:00;12.68;;;8.25;;
51636;SDS011;37713;53.254;6.460;2023-04-08T00:18:26;15.55;;;8.27;;
51636;SDS011;37713;53.254;6.460;2023-04-08T00:20:51;15.30;;;8.95;;
51636;SDS011;37713;53.254;6.460;2023-04-08T00:23:17;15.57;;;7.82;;
51636;SDS011;37713;53.254;6.460;2023-04-08T00:25:45;16.17;;;8.63;;
51636;SDS011;37713;53.254;6.460;2023-04-08T00:28:11;15.95;;;8.35;;
51636;SDS011;37713;53.254;6.460;2023-04-08T00:30:38;15.27;;;8.98;;
51636;SDS011;37713;53.254;6.460;2023-04-08T00:33:04;12.80;;;8.25;;
51636;SDS011;37713;53.254;6.460;2023-04-08T00:35:30;15.02;;;8.93;;
51636;SDS011;37713;53.254;6.460;2023-04-08T00:37:55;15.23;;;8.68;;
51636;SDS011;37713;53.254;6.460;2023-04-08T00:40:21;14.52;;;8.85;;
51636;SDS011;37713;53.254;6.460;2023-04-08T00:42:47;14.52;;;9.43;;
51636;SDS011;37713;53.254;6.460;2023-04-08T00:45:13;15.85;;;8.65;;
51636;SDS011;37713;53.254;6.460;2023-04-08T00:47:38;15.35;;;9.05;;
51636;SDS011;37713;53.254;6.460;2023-04-08T00:50:06;15.32;;;9.32;;
51636;SDS011;37713;53.254;6.460;2023-04-08T00:52:33;14.48;;;8.90;;
51636;SDS011;37713;53.254;6.460;2023-04-08T00:54:59;17.58;;;9.30;;
51636;SDS011;37713;53.254;6.460;2023-04-08T00:57:25;16.73;;;10.10;;
51636;SDS011;37713;53.254;6.460;2023-04-08T00:59:50;17.58;;;9.95;;
51636;SDS011;37713;53.254;6.460;2023-04-08T01:02:38;19.00;;;10.20;;
51636;SDS011;37713;53.254;6.460;2023-04-08T01:05:22;15.80;;;9.68;;
51636;SDS011;37713;53.254;6.460;2023-04-08T01:08:10;15.57;;;9.88;;
51636;SDS011;37713;53.254;6.460;2023-04-08T01:10:36;15.20;;;9.27;;
51636;SDS011;37713;53.254;6.460;2023-04-08T01:13:11;16.90;;;10.57;;
51636;SDS011;37713;53.254;6.460;2023-04-08T01:15:38;15.70;;;10.07;;
51636;SDS011;37713;53.254;6.460;2023-04-08T01:18:07;15.90;;;10.10;;
51636;SDS011;37713;53.254;6.460;2023-04-08T01:20:36;17.85;;;9.77;;
51636;SDS011;37713;53.254;6.460;2023-04-08T01:25:49;16.13;;;10.07;;
51636;SDS011;37713;53.254;6.460;2023-04-08T01:28:17;16.45;;;10.43;;
51636;SDS011;37713;53.254;6.460;2023-04-08T01:30:52;18.58;;;10.57;;
51636;SDS011;37713;53.254;6.460;2023-04-08T01:33:20;17.00;;;10.35;;
51636;SDS011;37713;53.254;6.460;2023-04-08T01:35:47;16.55;;;10.77;;
51636;SDS011;37713;53.254;6.460;2023-04-08T01:38:14;17.35;;;11.40;;
51636;SDS011;37713;53.254;6.460;2023-04-08T01:40:42;18.20;;;10.88;;
51636;SDS011;37713;53.254;6.460;2023-04-08T01:43:08;17.30;;;10.70;;
51636;SDS011;37713;53.254;6.460;2023-04-08T01:45:37;16.13;;;10.43;;
51636;SDS011;37713;53.254;6.460;2023-04-08T01:48:03;21.10;;;11.13;;
51636;SDS011;37713;53.254;6.460;2023-04-08T01:50:31;19.90;;;10.80;;
51636;SDS011;37713;53.254;6.460;2023-04-08T01:52:58;20.85;;;11.50;;
51636;SDS011;37713;53.254;6.460;2023-04-08T01:55:25;17.88;;;11.35;;
51636;SDS011;37713;53.254;6.460;2023-04-08T01:57:52;20.73;;;12.50;;
51636;SDS011;37713;53.254;6.460;2023-04-08T02:00:24;20.05;;;12.00;;
51636;SDS011;37713;53.254;6.460;2023-04-08T02:02:54;19.85;;;12.98;;
51636;SDS011;37713;53.254;6.460;2023-04-08T02:05:21;21.63;;;12.60;;
51636;SDS011;37713;53.254;6.460;2023-04-08T02:07:47;23.13;;;12.82;;
51636;SDS011;37713;53.254;6.460;2023-04-08T02:10:13;19.15;;;12.45;;
51636;SDS011;37713;53.254;6.460;2023-04-08T02:12:39;20.95;;;12.57;;
51636;SDS011;37713;53.254;6.460;2023-04-08T02:15:05;23.00;;;13.35;;
51636;SDS011;37713;53.254;6.460;2023-04-08T02:17:46;19.90;;;12.57;;
51636;SDS011;37713;53.254;6.460;2023-04-08T02:20:33;22.10;;;13.30;;
51636;SDS011;37713;53.254;6.460;2023-04-08T02:25:42;21.52;;;13.20;;
51636;SDS011;37713;53.254;6.460;2023-04-08T02:28:09;21.88;;;13.10;;
51636;SDS011;37713;53.254;6.460;2023-04-08T02:30:36;23.48;;;13.43;;
51636;SDS011;37713;53.254;6.460;2023-04-08T02:33:07;20.50;;;12.65;;
51636;SDS011;37713;53.254;6.460;2023-04-08T02:35:33;22.67;;;12.77;;
51636;SDS011;37713;53.254;6.460;2023-04-08T02:38:00;19.75;;;12.55;;
51636;SDS011;37713;53.254;6.460;2023-04-08T02:40:30;20.77;;;13.48;;
51636;SDS011;37713;53.254;6.460;2023-04-08T02:42:58;22.05;;;13.88;;
51636;SDS011;37713;53.254;6.460;2023-04-08T02:45:31;22.00;;;12.98;;
51636;SDS011;37713;53.254;6.460;2023-04-08T02:48:02;22.92;;;14.38;;
51636;SDS011;37713;53.254;6.460;2023-04-08T02:50:28;21.52;;;13.20;;
51636;SDS011;37713;53.254;6.460;2023-04-08T02:52:54;21.20;;;13.48;;
51636;SDS011;37713;53.254;6.460;2023-04-08T02:55:20;24.38;;;14.95;;
51636;SDS011;37713;53.254;6.460;2023-04-08T02:57:45;23.70;;;14.60;;
51636;SDS011;37713;53.254;6.460;2023-04-08T03:00:12;24.63;;;14.50;;
51636;SDS011;37713;53.254;6.460;2023-04-08T03:02:38;22.25;;;13.88;;
51636;SDS011;37713;53.254;6.460;2023-04-08T03:05:05;25.38;;;14.65;;
51636;SDS011;37713;53.254;6.460;2023-04-08T03:07:31;23.13;;;13.95;;
51636;SDS011;37713;53.254;6.460;2023-04-08T03:09:57;24.30;;;14.95;;
51636;SDS011;37713;53.254;6.460;2023-04-08T03:12:23;25.75;;;14.70;;
51636;SDS011;37713;53.254;6.460;2023-04-08T03:14:51;24.90;;;14.82;;
51636;SDS011;37713;53.254;6.460;2023-04-08T03:17:17;27.02;;;15.38;;
51636;SDS011;37713;53.254;6.460;2023-04-08T03:19:43;25.00;;;15.00;;
51636;SDS011;37713;53.254;6.460;2023-04-08T03:22:09;26.00;;;15.68;;
51636;SDS011;37713;53.254;6.460;2023-04-08T03:24:35;25.40;;;15.48;;
51636;SDS011;37713;53.254;6.460;2023-04-08T03:27:01;26.85;;;16.17;;
51636;SDS011;37713;53.254;6.460;2023-04-08T03:29:27;22.90;;;14.52;;
51636;SDS011;37713;53.254;6.460;2023-04-08T03:31:53;24.67;;;15.48;;
51636;SDS011;37713;53.254;6.460;2023-04-08T03:34:19;25.60;;;15.25;;
51636;SDS011;37713;53.254;6.460;2023-04-08T03:36:45;26.70;;;15.95;;
51636;SDS011;37713;53.254;6.460;2023-04-08T03:39:11;28.27;;;16.25;;
51636;SDS011;37713;53.254;6.460;2023-04-08T03:41:36;25.02;;;15.55;;
51636;SDS011;37713;53.254;6.460;2023-04-08T03:44:02;23.52;;;15.38;;
51636;SDS011;37713;53.254;6.460;2023-04-08T03:46:28;25.90;;;15.95;;
51636;SDS011;37713;53.254;6.460;2023-04-08T03:48:54;24.40;;;15.25;;
51636;SDS011;37713;53.254;6.460;2023-04-08T03:51:20;25.27;;;14.98;;
51636;SDS011;37713;53.254;6.460;2023-04-08T03:53:45;25.23;;;15.05;;
51636;SDS011;37713;53.254;6.460;2023-04-08T03:56:13;25.35;;;14.88;;
51636;SDS011;37713;53.254;6.460;2023-04-08T03:58:39;27.25;;;16.10;;
51636;SDS011;37713;53.254;6.460;2023-04-08T04:01:05;26.13;;;16.08;;
51636;SDS011;37713;53.254;6.460;2023-04-08T04:03:30;28.58;;;16.15;;
51636;SDS011;37713;53.254;6.460;2023-04-08T04:05:56;24.58;;;15.93;;
51636;SDS011;37713;53.254;6.460;2023-04-08T04:08:22;24.77;;;15.20;;
51636;SDS011;37713;53.254;6.460;2023-04-08T04:10:48;25.35;;;15.68;;
51636;SDS011;37713;53.254;6.460;2023-04-08T04:13:13;26.75;;;16.10;;
51636;SDS011;37713;53.254;6.460;2023-04-08T04:15:39;25.98;;;16.23;;
51636;SDS011;37713;53.254;6.460;2023-04-08T04:18:06;28.10;;;15.73;;
51636;SDS011;37713;53.254;6.460;2023-04-08T04:20:32;28.30;;;16.00;;
51636;SDS011;37713;53.254;6.460;2023-04-08T04:22:57;26.73;;;15.77;;
51636;SDS011;37713;53.254;6.460;2023-04-08T04:25:23;27.98;;;15.80;;
51636;SDS011;37713;53.254;6.460;2023-04-08T04:27:49;27.90;;;16.48;;
51636;SDS011;37713;53.254;6.460;2023-04-08T04:30:15;27.85;;;16.98;;
51636;SDS011;37713;53.254;6.460;2023-04-08T04:32:42;27.20;;;16.15;;
51636;SDS011;37713;53.254;6.460;2023-04-08T04:35:09;29.35;;;17.27;;
51636;SDS011;37713;53.254;6.460;2023-04-08T04:37:35;27.70;;;16.60;;
51636;SDS011;37713;53.254;6.460;2023-04-08T04:40:01;27.33;;;16.40;;
51636;SDS011;37713;53.254;6.460;2023-04-08T04:42:27;26.75;;;16.60;;
51636;SDS011;37713;53.254;6.460;2023-04-08T04:44:53;28.15;;;16.75;;
51636;SDS011;37713;53.254;6.460;2023-04-08T04:47:23;28.60;;;17.60;;
51636;SDS011;37713;53.254;6.460;2023-04-08T04:49:51;66.30;;;33.10;;
51636;SDS011;37713;53.254;6.460;2023-04-08T04:52:17;32.72;;;20.15;;
51636;SDS011;37713;53.254;6.460;2023-04-08T04:54:43;31.08;;;18.77;;
51636;SDS011;37713;53.254;6.460;2023-04-08T04:57:09;30.20;;;17.25;;
51636;SDS011;37713;53.254;6.460;2023-04-08T04:59:35;28.67;;;18.10;;
51636;SDS011;37713;53.254;6.460;2023-04-08T05:02:01;27.73;;;15.57;;
51636;SDS011;37713;53.254;6.460;2023-04-08T05:04:27;31.20;;;18.35;;
51636;SDS011;37713;53.254;6.460;2023-04-08T05:06:53;29.35;;;17.73;;
51636;SDS011;37713;53.254;6.460;2023-04-08T05:09:18;29.23;;;17.27;;
51636;SDS011;37713;53.254;6.460;2023-04-08T05:11:44;27.92;;;17.45;;
51636;SDS011;37713;53.254;6.460;2023-04-08T05:14:10;29.50;;;17.95;;
51636;SDS011;37713;53.254;6.460;2023-04-08T05:16:36;29.45;;;18.50;;
51636;SDS011;37713;53.254;6.460;2023-04-08T05:19:03;30.13;;;17.73;;
51636;SDS011;37713;53.254;6.460;2023-04-08T05:21:29;29.75;;;18.55;;
51636;SDS011;37713;53.254;6.460;2023-04-08T05:23:55;28.65;;;17.73;;
51636;SDS011;37713;53.254;6.460;2023-04-08T05:26:21;29.73;;;17.80;;
51636;SDS011;37713;53.254;6.460;2023-04-08T05:28:47;32.13;;;19.17;;
51636;SDS011;37713;53.254;6.460;2023-04-08T05:31:16;33.58;;;18.90;;
51636;SDS011;37713;53.254;6.460;2023-04-08T05:33:43;31.75;;;18.95;;
51636;SDS011;37713;53.254;6.460;2023-04-08T05:36:09;31.08;;;19.08;;
51636;SDS011;37713;53.254;6.460;2023-04-08T05:38:36;30.98;;;19.60;;
51636;SDS011;37713;53.254;6.460;2023-04-08T05:41:02;33.28;;;19.90;;
51636;SDS011;37713;53.254;6.460;2023-04-08T05:43:27;30.70;;;19.27;;
51636;SDS011;37713;53.254;6.460;2023-04-08T05:45:53;32.13;;;19.38;;
51636;SDS011;37713;53.254;6.460;2023-04-08T05:48:20;32.60;;;18.75;;
51636;SDS011;37713;53.254;6.460;2023-04-08T05:50:46;32.85;;;19.75;;
51636;SDS011;37713;53.254;6.460;2023-04-08T05:53:12;33.67;;;20.75;;
51636;SDS011;37713;53.254;6.460;2023-04-08T05:55:39;32.78;;;19.08;;
51636;SDS011;37713;53.254;6.460;2023-04-08T05:58:05;33.60;;;19.52;;
51636;SDS011;37713;53.254;6.460;2023-04-08T06:00:31;34.20;;;19.85;;
51636;SDS011;37713;53.254;6.460;2023-04-08T06:02:57;32.28;;;19.58;;
51636;SDS011;37713;53.254;6.460;2023-04-08T06:05:23;30.70;;;18.48;;
51636;SDS011;37713;53.254;6.460;2023-04-08T06:07:49;34.72;;;19.10;;
51636;SDS011;37713;53.254;6.460;2023-04-08T06:10:15;31.67;;;18.92;;
51636;SDS011;37713;53.254;6.460;2023-04-08T06:12:42;33.60;;;19.70;;
51636;SDS011;37713;53.254;6.460;2023-04-08T06:15:07;36.33;;;20.27;;
51636;SDS011;37713;53.254;6.460;2023-04-08T06:17:37;32.65;;;19.95;;
51636;SDS011;37713;53.254;6.460;2023-04-08T06:20:04;36.50;;;19.58;;
51636;SDS011;37713;53.254;6.460;2023-04-08T06:22:31;36.15;;;19.52;;
51636;SDS011;37713;53.254;6.460;2023-04-08T06:24:57;33.35;;;19.33;;
51636;SDS011;37713;53.254;6.460;2023-04-08T06:27:22;33.95;;;19.70;;
51636;SDS011;37713;53.254;6.460;2023-04-08T06:29:48;33.28;;;19.92;;
51636;SDS011;37713;53.254;6.460;2023-04-08T06:32:14;33.55;;;19.40;;
51636;SDS011;37713;53.254;6.460;2023-04-08T06:34:41;34.70;;;20.17;;
51636;SDS011;37713;53.254;6.460;2023-04-08T06:37:08;33.83;;;19.20;;
51636;SDS011;37713;53.254;6.460;2023-04-08T06:39:34;34.33;;;19.70;;
51636;SDS011;37713;53.254;6.460;2023-04-08T06:42:00;35.83;;;20.63;;
51636;SDS011;37713;53.254;6.460;2023-04-08T06:44:26;36.92;;;20.23;;
51636;SDS011;37713;53.254;6.460;2023-04-08T06:46:52;35.75;;;19.75;;
51636;SDS011;37713;53.254;6.460;2023-04-08T06:49:18;32.28;;;18.55;;
51636;SDS011;37713;53.254;6.460;2023-04-08T06:51:43;33.30;;;18.77;;
51636;SDS011;37713;53.254;6.460;2023-04-08T06:54:09;29.77;;;18.48;;
51636;SDS011;37713;53.254;6.460;2023-04-08T06:56:36;33.00;;;19.58;;
51636;SDS011;37713;53.254;6.460;2023-04-08T06:59:01;35.65;;;19.88;;
51636;SDS011;37713;53.254;6.460;2023-04-08T07:01:28;32.55;;;19.75;;
51636;SDS011;37713;53.254;6.460;2023-04-08T07:03:56;29.45;;;19.33;;
51636;SDS011;37713;53.254;6.460;2023-04-08T07:06:22;30.88;;;18.67;;
51636;SDS011;37713;53.254;6.460;2023-04-08T07:08:48;29.08;;;17.20;;
51636;SDS011;37713;53.254;6.460;2023-04-08T07:11:14;26.35;;;17.90;;
51636;SDS011;37713;53.254;6.460;2023-04-08T07:13:39;28.05;;;17.55;;
51636;SDS011;37713;53.254;6.460;2023-04-08T07:16:05;25.35;;;17.08;;
51636;SDS011;37713;53.254;6.460;2023-04-08T07:18:31;25.73;;;16.67;;
51636;SDS011;37713;53.254;6.460;2023-04-08T07:20:57;31.33;;;18.30;;
51636;SDS011;37713;53.254;6.460;2023-04-08T07:23:25;26.13;;;16.60;;
51636;SDS011;37713;53.254;6.460;2023-04-08T07:25:51;26.92;;;16.83;;
51636;SDS011;37713;53.254;6.460;2023-04-08T07:28:18;29.67;;;18.38;;
51636;SDS011;37713;53.254;6.460;2023-04-08T07:30:44;26.48;;;17.63;;
51636;SDS011;37713;53.254;6.460;2023-04-08T07:33:10;28.63;;;18.33;;
51636;SDS011;37713;53.254;6.460;2023-04-08T07:35:36;28.23;;;17.80;;
51636;SDS011;37713;53.254;6.460;2023-04-08T07:38:02;27.50;;;17.55;;
51636;SDS011;37713;53.254;6.460;2023-04-08T07:40:28;25.80;;;17.10;;
51636;SDS011;37713;53.254;6.460;2023-04-08T07:42:54;26.60;;;16.00;;
51636;SDS011;37713;53.254;6.460;2023-04-08T07:45:20;24.75;;;16.05;;
51636;SDS011;37713;53.254;6.460;2023-04-08T07:47:46;25.60;;;16.42;;
51636;SDS011;37713;53.254;6.460;2023-04-08T07:50:12;28.33;;;17.33;;
51636;SDS011;37713;53.254;6.460;2023-04-08T07:52:38;27.55;;;16.52;;
51636;SDS011;37713;53.254;6.460;2023-04-08T07:55:04;27.20;;;16.23;;
51636;SDS011;37713;53.254;6.460;2023-04-08T07:57:30;29.38;;;18.08;;
51636;SDS011;37713;53.254;6.460;2023-04-08T07:59:56;101.15;;;49.28;;
51636;SDS011;37713;53.254;6.460;2023-04-08T08:02:22;33.63;;;21.23;;
51636;SDS011;37713;53.254;6.460;2023-04-08T08:04:48;30.48;;;18.75;;
51636;SDS011;37713;53.254;6.460;2023-04-08T08:07:14;31.50;;;19.17;;
51636;SDS011;37713;53.254;6.460;2023-04-08T08:09:40;29.42;;;18.58;;
51636;SDS011;37713;53.254;6.460;2023-04-08T08:12:06;30.63;;;18.13;;
51636;SDS011;37713;53.254;6.460;2023-04-08T08:14:31;27.42;;;16.52;;
51636;SDS011;37713;53.254;6.460;2023-04-08T08:16:57;28.02;;;17.13;;
51636;SDS011;37713;53.254;6.460;2023-04-08T08:19:23;29.92;;;17.05;;
51636;SDS011;37713;53.254;6.460;2023-04-08T08:21:49;32.42;;;19.83;;
51636;SDS011;37713;53.254;6.460;2023-04-08T08:24:15;29.13;;;17.50;;
51636;SDS011;37713;53.254;6.460;2023-04-08T08:26:41;30.92;;;17.73;;
51636;SDS011;37713;53.254;6.460;2023-04-08T08:29:09;29.27;;;18.33;;
51636;SDS011;37713;53.254;6.460;2023-04-08T08:31:35;32.55;;;19.42;;
51636;SDS011;37713;53.254;6.460;2023-04-08T08:34:01;32.92;;;20.42;;
51636;SDS011;37713;53.254;6.460;2023-04-08T08:36:27;32.95;;;18.75;;
51636;SDS011;37713;53.254;6.460;2023-04-08T08:38:53;32.47;;;19.55;;
51636;SDS011;37713;53.254;6.460;2023-04-08T08:41:19;31.80;;;19.27;;
51636;SDS011;37713;53.254;6.460;2023-04-08T08:43:45;32.47;;;19.17;;
51636;SDS011;37713;53.254;6.460;2023-04-08T08:46:12;33.13;;;19.58;;
51636;SDS011;37713;53.254;6.460;2023-04-08T08:48:41;30.40;;;17.85;;
51636;SDS011;37713;53.254;6.460;2023-04-08T08:51:10;27.10;;;16.67;;
51636;SDS011;37713;53.254;6.460;2023-04-08T08:53:37;25.40;;;16.30;;
51636;SDS011;37713;53.254;6.460;2023-04-08T08:56:03;22.45;;;14.82;;
51636;SDS011;37713;53.254;6.460;2023-04-08T08:58:32;21.38;;;13.15;;
51636;SDS011;37713;53.254;6.460;2023-04-08T09:00:59;26.60;;;16.95;;
51636;SDS011;37713;53.254;6.460;2023-04-08T09:03:26;18.10;;;11.75;;
51636;SDS011;37713;53.254;6.460;2023-04-08T09:05:53;22.38;;;12.38;;
51636;SDS011;37713;53.254;6.460;2023-04-08T09:11:10;19.10;;;12.03;;
51636;SDS011;37713;53.254;6.460;2023-04-08T09:13:44;17.55;;;10.93;;
51636;SDS011;37713;53.254;6.460;2023-04-08T09:16:14;18.58;;;10.77;;
51636;SDS011;37713;53.254;6.460;2023-04-08T09:18:43;18.00;;;11.15;;
51636;SDS011;37713;53.254;6.460;2023-04-08T09:21:11;16.58;;;10.52;;
51636;SDS011;37713;53.254;6.460;2023-04-08T09:23:42;18.15;;;11.13;;
51636;SDS011;37713;53.254;6.460;2023-04-08T09:26:10;16.75;;;11.13;;
51636;SDS011;37713;53.254;6.460;2023-04-08T09:28:40;20.55;;;12.10;;
51636;SDS011;37713;53.254;6.460;2023-04-08T09:31:21;22.25;;;11.93;;
51636;SDS011;37713;53.254;6.460;2023-04-08T09:33:48;25.58;;;15.35;;
51636;SDS011;37713;53.254;6.460;2023-04-08T09:36:15;24.27;;;14.48;;
51636;SDS011;37713;53.254;6.460;2023-04-08T09:38:44;22.85;;;14.05;;
51636;SDS011;37713;53.254;6.460;2023-04-08T09:41:14;22.55;;;13.70;;
51636;SDS011;37713;53.254;6.460;2023-04-08T09:43:42;20.60;;;13.38;;
51636;SDS011;37713;53.254;6.460;2023-04-08T09:46:13;24.58;;;14.30;;
51636;SDS011;37713;53.254;6.460;2023-04-08T09:48:43;25.38;;;14.38;;
51636;SDS011;37713;53.254;6.460;2023-04-08T09:51:14;23.00;;;14.32;;
51636;SDS011;37713;53.254;6.460;2023-04-08T09:53:45;23.95;;;14.43;;
51636;SDS011;37713;53.254;6.460;2023-04-08T09:56:12;22.90;;;14.68;;
51636;SDS011;37713;53.254;6.460;2023-04-08T09:58:42;26.52;;;15.57;;
51636;SDS011;37713;53.254;6.460;2023-04-08T10:01:16;25.20;;;16.40;;
51636;SDS011;37713;53.254;6.460;2023-04-08T10:03:49;27.08;;;16.25;;
51636;SDS011;37713;53.254;6.460;2023-04-08T10:08:45;23.92;;;15.00;;
51636;SDS011;37713;53.254;6.460;2023-04-08T10:11:13;23.20;;;14.65;;
51636;SDS011;37713;53.254;6.460;2023-04-08T10:13:40;24.27;;;15.00;;
51636;SDS011;37713;53.254;6.460;2023-04-08T10:18:46;22.70;;;13.40;;
51636;SDS011;37713;53.254;6.460;2023-04-08T10:23:59;24.63;;;15.77;;
51636;SDS011;37713;53.254;6.460;2023-04-08T10:26:34;26.92;;;16.77;;
51636;SDS011;37713;53.254;6.460;2023-04-08T10:29:49;24.77;;;16.63;;
51636;SDS011;37713;53.254;6.460;2023-04-08T10:31:50;25.33;;;15.85;;
51636;SDS011;37713;53.254;6.460;2023-04-08T10:34:17;26.70;;;15.48;;
51636;SDS011;37713;53.254;6.460;2023-04-08T10:36:44;28.67;;;16.40;;
51636;SDS011;37713;53.254;6.460;2023-04-08T10:39:11;29.95;;;16.35;;
51636;SDS011;37713;53.254;6.460;2023-04-08T10:41:48;26.27;;;16.15;;
51636;SDS011;37713;53.254;6.460;2023-04-08T10:44:19;30.65;;;17.30;;
51636;SDS011;37713;53.254;6.460;2023-04-08T10:46:54;37.22;;;18.98;;
51636;SDS011;37713;53.254;6.460;2023-04-08T10:49:20;39.03;;;18.70;;
51636;SDS011;37713;53.254;6.460;2023-04-08T10:51:46;32.80;;;18.05;;
51636;SDS011;37713;53.254;6.460;2023-04-08T10:54:13;30.20;;;18.08;;
51636;SDS011;37713;53.254;6.460;2023-04-08T10:56:50;30.38;;;16.08;;
51636;SDS011;37713;53.254;6.460;2023-04-08T10:59:27;27.95;;;16.00;;
51636;SDS011;37713;53.254;6.460;2023-04-08T11:01:56;26.90;;;16.23;;
51636;SDS011;37713;53.254;6.460;2023-04-08T11:04:22;28.55;;;17.15;;
51636;SDS011;37713;53.254;6.460;2023-04-08T11:06:49;33.05;;;17.00;;
51636;SDS011;37713;53.254;6.460;2023-04-08T11:09:15;31.02;;;17.08;;
51636;SDS011;37713;53.254;6.460;2023-04-08T11:11:42;34.63;;;19.80;;
51636;SDS011;37713;53.254;6.460;2023-04-08T11:14:09;35.10;;;19.95;;
51636;SDS011;37713;53.254;6.460;2023-04-08T11:16:36;34.65;;;21.80;;
51636;SDS011;37713;53.254;6.460;2023-04-08T11:19:05;35.50;;;20.48;;
51636;SDS011;37713;53.254;6.460;2023-04-08T11:21:34;38.38;;;21.52;;
51636;SDS011;37713;53.254;6.460;2023-04-08T11:24:05;38.55;;;20.85;;
51636;SDS011;37713;53.254;6.460;2023-04-08T11:26:36;36.08;;;19.98;;
51636;SDS011;37713;53.254;6.460;2023-04-08T11:29:02;33.88;;;19.98;;
51636;SDS011;37713;53.254;6.460;2023-04-08T11:31:29;32.28;;;18.30;;
51636;SDS011;37713;53.254;6.460;2023-04-08T11:33:55;35.65;;;20.15;;
51636;SDS011;37713;53.254;6.460;2023-04-08T11:36:22;33.42;;;19.60;;
51636;SDS011;37713;53.254;6.460;2023-04-08T11:38:48;32.70;;;19.75;;
51636;SDS011;37713;53.254;6.460;2023-04-08T11:41:14;35.70;;;19.45;;
51636;SDS011;37713;53.254;6.460;2023-04-08T11:43:51;34.00;;;20.38;;
51636;SDS011;37713;53.254;6.460;2023-04-08T11:46:18;36.42;;;21.00;;
51636;SDS011;37713;53.254;6.460;2023-04-08T11:49:04;37.10;;;20.30;;
51636;SDS011;37713;53.254;6.460;2023-04-08T11:51:31;34.08;;;20.17;;
51636;SDS011;37713;53.254;6.460;2023-04-08T11:54:24;37.90;;;19.75;;
51636;SDS011;37713;53.254;6.460;2023-04-08T11:56:54;35.33;;;19.67;;
51636;SDS011;37713;53.254;6.460;2023-04-08T11:59:22;34.13;;;19.48;;
51636;SDS011;37713;53.254;6.460;2023-04-08T12:01:50;33.60;;;19.20;;
51636;SDS011;37713;53.254;6.460;2023-04-08T12:04:16;35.03;;;19.92;;
51636;SDS011;37713;53.254;6.460;2023-04-08T12:06:42;33.50;;;19.48;;
51636;SDS011;37713;53.254;6.460;2023-04-08T12:09:10;33.83;;;20.55;;
51636;SDS011;37713;53.254;6.460;2023-04-08T12:11:37;35.25;;;20.70;;
51636;SDS011;37713;53.254;6.460;2023-04-08T12:14:03;30.92;;;18.70;;
51636;SDS011;37713;53.254;6.460;2023-04-08T12:16:28;28.35;;;17.33;;
51636;SDS011;37713;53.254;6.460;2023-04-08T12:18:54;30.00;;;17.73;;
51636;SDS011;37713;53.254;6.460;2023-04-08T12:21:20;33.25;;;18.52;;
51636;SDS011;37713;53.254;6.460;2023-04-08T12:23:46;31.73;;;18.20;;
51636;SDS011;37713;53.254;6.460;2023-04-08T12:26:12;28.90;;;17.67;;
51636;SDS011;37713;53.254;6.460;2023-04-08T12:28:38;31.02;;;18.10;;
51636;SDS011;37713;53.254;6.460;2023-04-08T12:31:04;29.90;;;17.20;;
51636;SDS011;37713;53.254;6.460;2023-04-08T12:33:30;26.55;;;16.15;;
51636;SDS011;37713;53.254;6.460;2023-04-08T12:35:56;29.17;;;16.63;;
51636;SDS011;37713;53.254;6.460;2023-04-08T12:38:23;26.63;;;16.50;;
51636;SDS011;37713;53.254;6.460;2023-04-08T12:40:51;25.48;;;16.10;;
51636;SDS011;37713;53.254;6.460;2023-04-08T12:43:17;28.38;;;17.35;;
51636;SDS011;37713;53.254;6.460;2023-04-08T12:45:43;26.52;;;16.48;;
51636;SDS011;37713;53.254;6.460;2023-04-08T12:48:09;27.35;;;17.05;;
51636;SDS011;37713;53.254;6.460;2023-04-08T12:50:34;27.88;;;16.88;;
51636;SDS011;37713;53.254;6.460;2023-04-08T12:53:00;27.60;;;17.15;;
51636;SDS011;37713;53.254;6.460;2023-04-08T12:55:26;25.08;;;15.68;;
51636;SDS011;37713;53.254;6.460;2023-04-08T12:57:52;25.88;;;15.95;;
51636;SDS011;37713;53.254;6.460;2023-04-08T13:00:18;27.50;;;16.83;;
51636;SDS011;37713;53.254;6.460;2023-04-08T13:02:44;30.55;;;18.27;;
51636;SDS011;37713;53.254;6.460;2023-04-08T13:05:10;27.17;;;17.85;;
51636;SDS011;37713;53.254;6.460;2023-04-08T13:07:36;25.05;;;16.88;;
51636;SDS011;37713;53.254;6.460;2023-04-08T13:10:02;23.35;;;15.52;;
51636;SDS011;37713;53.254;6.460;2023-04-08T13:12:30;25.90;;;16.00;;
51636;SDS011;37713;53.254;6.460;2023-04-08T13:14:56;25.48;;;17.35;;
51636;SDS011;37713;53.254;6.460;2023-04-08T13:17:22;24.40;;;17.23;;
51636;SDS011;37713;53.254;6.460;2023-04-08T13:19:48;25.75;;;18.27;;
51636;SDS011;37713;53.254;6.460;2023-04-08T13:22:15;24.88;;;16.67;;
51636;SDS011;37713;53.254;6.460;2023-04-08T13:24:41;24.80;;;17.00;;
51636;SDS011;37713;53.254;6.460;2023-04-08T13:27:07;21.63;;;16.10;;
51636;SDS011;37713;53.254;6.460;2023-04-08T13:29:33;24.27;;;15.55;;
51636;SDS011;37713;53.254;6.460;2023-04-08T13:31:58;21.65;;;14.75;;
51636;SDS011;37713;53.254;6.460;2023-04-08T13:34:25;19.35;;;13.82;;
51636;SDS011;37713;53.254;6.460;2023-04-08T13:36:51;22.55;;;13.90;;
51636;SDS011;37713;53.254;6.460;2023-04-08T13:39:17;19.33;;;12.50;;
51636;SDS011;37713;53.254;6.460;2023-04-08T13:41:43;21.00;;;14.02;;
51636;SDS011;37713;53.254;6.460;2023-04-08T13:44:09;21.70;;;14.30;;
51636;SDS011;37713;53.254;6.460;2023-04-08T13:46:34;22.60;;;15.00;;
51636;SDS011;37713;53.254;6.460;2023-04-08T13:49:00;21.92;;;15.38;;
51636;SDS011;37713;53.254;6.460;2023-04-08T13:51:27;23.45;;;16.23;;
51636;SDS011;37713;53.254;6.460;2023-04-08T13:53:53;23.80;;;15.77;;
51636;SDS011;37713;53.254;6.460;2023-04-08T13:56:19;21.27;;;15.65;;
51636;SDS011;37713;53.254;6.460;2023-04-08T13:58:45;20.10;;;15.02;;
51636;SDS011;37713;53.254;6.460;2023-04-08T14:01:11;21.33;;;14.75;;
51636;SDS011;37713;53.254;6.460;2023-04-08T14:03:37;20.45;;;14.55;;
51636;SDS011;37713;53.254;6.460;2023-04-08T14:06:03;18.73;;;13.70;;
51636;SDS011;37713;53.254;6.460;2023-04-08T14:08:29;18.63;;;14.40;;
51636;SDS011;37713;53.254;6.460;2023-04-08T14:10:55;19.38;;;14.23;;
51636;SDS011;37713;53.254;6.460;2023-04-08T14:13:23;20.25;;;14.45;;
51636;SDS011;37713;53.254;6.460;2023-04-08T14:15:49;21.05;;;14.02;;
51636;SDS011;37713;53.254;6.460;2023-04-08T14:18:17;19.42;;;14.27;;
51636;SDS011;37713;53.254;6.460;2023-04-08T14:20:43;20.58;;;14.55;;
51636;SDS011;37713;53.254;6.460;2023-04-08T14:23:09;20.52;;;14.45;;
51636;SDS011;37713;53.254;6.460;2023-04-08T14:25:35;18.25;;;14.60;;
51636;SDS011;37713;53.254;6.460;2023-04-08T14:28:01;21.98;;;13.88;;
51636;SDS011;37713;53.254;6.460;2023-04-08T14:30:27;20.95;;;14.48;;
51636;SDS011;37713;53.254;6.460;2023-04-08T14:32:52;22.63;;;15.38;;
51636;SDS011;37713;53.254;6.460;2023-04-08T14:35:18;21.33;;;15.18;;
51636;SDS011;37713;53.254;6.460;2023-04-08T14:37:45;18.58;;;15.05;;
51636;SDS011;37713;53.254;6.460;2023-04-08T14:40:11;21.88;;;14.80;;